Time;durP1;ratioP1;P1;durP2;ratioP2;P2;SDS_P1;SDS_P2;PMS_P1;PMS_P2;Temp;Humidity;BMP_temperature;BMP_pressure;BME280_temperature;BME280_humidity;BME280_pressure;Samples;Min_cycle;Max_cycle;Signal;HPM_P1;HPM_P2
2023/08/30 00:00:57;;;;;;;9.30;6.55;;;;;;;;;;6216124;23;20023;-90
2023/08/30 00:03:23;;;;;;;9.38;7.28;;;;;;;;;;6216191;23;20042;-90
2023/08/30 00:05:49;;;;;;;9.25;7.00;;;;;;;;;;6243832;23;20008;-91
2023/08/30 00:08:18;;;;;;;9.18;7.00;;;;;;;;;;6216380;23;20023;-91
2023/08/30 00:10:45;;;;;;;8.48;6.10;;;;;;;;;;6217035;23;20039;-91
2023/08/30 00:13:11;;;;;;;8.93;7.05;;;;;;;;;;6216311;23;20016;-91
2023/08/30 00:15:37;;;;;;;7.28;5.90;;;;;;;;;;6192248;23;20035;-92
2023/08/30 00:18:03;;;;;;;6.97;5.95;;;;;;;;;;6191575;23;20019;-91
2023/08/30 00:20:29;;;;;;;7.35;6.18;;;;;;;;;;6217594;23;20091;-91
2023/08/30 00:22:55;;;;;;;7.20;5.75;;;;;;;;;;6191461;23;20038;-91
2023/08/30 00:25:21;;;;;;;7.82;6.25;;;;;;;;;;6191914;23;20386;-92
2023/08/30 00:27:47;;;;;;;7.63;6.25;;;;;;;;;;6216536;23;20020;-92
2023/08/30 00:30:14;;;;;;;9.80;6.68;;;;;;;;;;6242743;23;20024;-91
2023/08/30 00:32:40;;;;;;;9.10;6.30;;;;;;;;;;6216660;23;20016;-90
2023/08/30 00:35:06;;;;;;;7.82;5.88;;;;;;;;;;6243606;23;20015;-92
2023/08/30 00:37:32;;;;;;;8.27;5.80;;;;;;;;;;6243377;23;20043;-91
2023/08/30 00:39:59;;;;;;;8.40;6.20;;;;;;;;;;6216374;23;20012;-91
2023/08/30 00:42:26;;;;;;;8.85;6.75;;;;;;;;;;6191860;23;20373;-92
2023/08/30 00:44:52;;;;;;;8.57;5.50;;;;;;;;;;6216635;23;20087;-91
2023/08/30 00:47:18;;;;;;;8.23;6.65;;;;;;;;;;6216266;23;20019;-91
2023/08/30 00:49:44;;;;;;;7.57;6.38;;;;;;;;;;6244452;23;20095;-90
2023/08/30 00:52:11;;;;;;;7.45;6.25;;;;;;;;;;6216133;23;20095;-91
2023/08/30 00:54:37;;;;;;;6.75;5.47;;;;;;;;;;6192526;23;20082;-91
2023/08/30 00:57:05;;;;;;;7.32;5.53;;;;;;;;;;6191160;23;20020;-90
2023/08/30 00:59:32;;;;;;;8.25;6.07;;;;;;;;;;6215864;23;20044;-91
2023/08/30 01:02:00;;;;;;;7.90;5.93;;;;;;;;;;6216534;23;20012;-91
2023/08/30 01:04:27;;;;;;;7.68;6.32;;;;;;;;;;6216747;23;20008;-91
2023/08/30 01:06:53;;;;;;;7.65;5.88;;;;;;;;;;6218698;23;20024;-91
2023/08/30 01:09:19;;;;;;;6.93;5.85;;;;;;;;;;6243293;23;20084;-92
2023/08/30 01:12:04;;;;;;;6.18;5.30;;;;;;;;;;6244114;23;20066;-91
2023/08/30 01:14:34;;;;;;;8.52;6.50;;;;;;;;;;6243602;23;20047;-93
2023/08/30 01:17:00;;;;;;;7.57;5.57;;;;;;;;;;6216474;23;20319;-92
2023/08/30 01:19:44;;;;;;;6.78;5.55;;;;;;;;;;6244109;23;20054;-91
2023/08/30 01:22:13;;;;;;;6.05;5.05;;;;;;;;;;6215888;23;20062;-91
2023/08/30 01:24:50;;;;;;;7.03;5.60;;;;;;;;;;6245146;23;20031;-91
2023/08/30 01:27:17;;;;;;;6.88;5.30;;;;;;;;;;6225442;23;20019;-92
2023/08/30 01:29:44;;;;;;;6.75;5.75;;;;;;;;;;6242765;23;20017;-91
2023/08/30 01:32:11;;;;;;;8.23;5.70;;;;;;;;;;6242215;23;20034;-93
2023/08/30 01:34:40;;;;;;;8.25;6.22;;;;;;;;;;6268326;22;20012;-92
2023/08/30 01:37:10;;;;;;;6.38;4.57;;;;;;;;;;6242350;23;20027;-92
2023/08/30 01:39:40;;;;;;;6.70;4.68;;;;;;;;;;6252698;23;20023;-91
2023/08/30 01:42:07;;;;;;;8.60;5.35;;;;;;;;;;6243640;23;20009;-92
2023/08/30 01:44:33;;;;;;;7.75;5.00;;;;;;;;;;6191426;23;20012;-92
2023/08/30 01:47:00;;;;;;;6.88;5.15;;;;;;;;;;6218282;23;20369;-92
2023/08/30 01:49:27;;;;;;;7.70;5.00;;;;;;;;;;6216814;23;20016;-92
2023/08/30 01:51:53;;;;;;;7.20;4.47;;;;;;;;;;6216299;23;20070;-92
2023/08/30 01:54:21;;;;;;;7.28;5.43;;;;;;;;;;6210745;23;20012;-91
2023/08/30 01:56:47;;;;;;;7.55;5.15;;;;;;;;;;6186994;23;20016;-91
2023/08/30 01:59:13;;;;;;;9.15;4.95;;;;;;;;;;6210943;23;20059;-92
2023/08/30 02:01:39;;;;;;;5.82;4.65;;;;;;;;;;6212310;23;20067;-91
2023/08/30 02:04:05;;;;;;;6.00;4.70;;;;;;;;;;6210529;23;20374;-93
2023/08/30 02:06:52;;;;;;;6.10;4.95;;;;;;;;;;6211492;23;20009;-92
2023/08/30 02:09:19;;;;;;;6.07;4.35;;;;;;;;;;6205866;23;20334;-92
2023/08/30 02:11:46;;;;;;;7.28;5.00;;;;;;;;;;6211439;23;20012;-92
2023/08/30 02:14:17;;;;;;;6.43;4.95;;;;;;;;;;6214017;23;20012;-92
2023/08/30 02:16:43;;;;;;;8.57;5.85;;;;;;;;;;6188856;23;20009;-91
2023/08/30 02:19:09;;;;;;;6.43;5.13;;;;;;;;;;6187412;23;20025;-92
2023/08/30 02:21:35;;;;;;;5.28;4.75;;;;;;;;;;6213930;23;20087;-92
2023/08/30 02:24:02;;;;;;;7.68;5.18;;;;;;;;;;6214823;23;20017;-93
2023/08/30 02:26:28;;;;;;;6.22;4.88;;;;;;;;;;6187869;23;20012;-92
2023/08/30 02:28:54;;;;;;;6.07;4.57;;;;;;;;;;6213082;23;20024;-92
2023/08/30 02:31:20;;;;;;;5.45;4.47;;;;;;;;;;6214760;23;20048;-92
2023/08/30 02:33:46;;;;;;;6.03;4.45;;;;;;;;;;6213051;23;20016;-92
2023/08/30 02:36:12;;;;;;;7.65;5.18;;;;;;;;;;6187482;23;20019;-92
2023/08/30 02:38:38;;;;;;;8.77;5.03;;;;;;;;;;6214200;23;20012;-92
2023/08/30 02:41:04;;;;;;;7.35;4.90;;;;;;;;;;6186012;23;20012;-91
2023/08/30 02:43:30;;;;;;;6.85;5.57;;;;;;;;;;6188123;23;20315;-92
2023/08/30 02:45:56;;;;;;;7.40;5.45;;;;;;;;;;6212772;23;20389;-92
2023/08/30 02:48:22;;;;;;;6.63;5.32;;;;;;;;;;6213302;23;20013;-92
2023/08/30 02:50:48;;;;;;;5.65;4.57;;;;;;;;;;6214067;23;20013;-93
2023/08/30 02:53:14;;;;;;;8.10;5.30;;;;;;;;;;6213540;23;20453;-93
2023/08/30 02:55:40;;;;;;;8.05;5.43;;;;;;;;;;6188451;23;20017;-92
2023/08/30 02:58:06;;;;;;;6.43;4.93;;;;;;;;;;6187560;23;20013;-92
2023/08/30 03:00:34;;;;;;;6.80;5.10;;;;;;;;;;6187634;23;20009;-92
2023/08/30 03:03:00;;;;;;;6.38;5.20;;;;;;;;;;6187621;23;20023;-91
2023/08/30 03:05:26;;;;;;;6.60;4.85;;;;;;;;;;6188168;23;20054;-91
2023/08/30 03:07:53;;;;;;;6.32;5.00;;;;;;;;;;6187462;23;20012;-92
2023/08/30 03:10:19;;;;;;;6.35;4.65;;;;;;;;;;6212384;23;20430;-93
2023/08/30 03:12:45;;;;;;;6.18;4.22;;;;;;;;;;6213105;23;20008;-92
2023/08/30 03:15:11;;;;;;;7.35;5.13;;;;;;;;;;6213993;23;20432;-93
2023/08/30 03:17:38;;;;;;;6.40;5.32;;;;;;;;;;6215225;23;20059;-92
2023/08/30 03:20:04;;;;;;;5.70;4.72;;;;;;;;;;6212683;23;20351;-92
2023/08/30 03:22:32;;;;;;;7.90;5.40;;;;;;;;;;6213900;23;20008;-92
2023/08/30 03:24:58;;;;;;;6.85;5.45;;;;;;;;;;6187477;23;20086;-92
2023/08/30 03:27:24;;;;;;;6.00;5.35;;;;;;;;;;6188566;23;20066;-93
2023/08/30 03:29:50;;;;;;;5.88;4.70;;;;;;;;;;6213256;23;20021;-92
2023/08/30 03:32:20;;;;;;;6.28;4.65;;;;;;;;;;6187460;23;20016;-93
2023/08/30 03:34:47;;;;;;;6.20;4.43;;;;;;;;;;6188354;23;20017;-92
2023/08/30 03:37:16;;;;;;;5.82;4.45;;;;;;;;;;6212896;23;20019;-93
2023/08/30 03:39:42;;;;;;;6.85;5.35;;;;;;;;;;6212592;23;20019;-93
2023/08/30 03:42:08;;;;;;;6.25;5.15;;;;;;;;;;6187663;23;20543;-93
2023/08/30 03:44:35;;;;;;;7.55;4.68;;;;;;;;;;6188064;23;20013;-93
2023/08/30 03:47:01;;;;;;;8.32;5.00;;;;;;;;;;6213287;23;20012;-92
2023/08/30 03:49:27;;;;;;;6.85;5.32;;;;;;;;;;6187783;23;20095;-93
2023/08/30 03:51:53;;;;;;;6.32;5.15;;;;;;;;;;6213392;23;20016;-93
2023/08/30 03:54:19;;;;;;;6.00;4.95;;;;;;;;;;6212665;23;20316;-93
2023/08/30 03:56:45;;;;;;;7.75;5.45;;;;;;;;;;6188425;23;20399;-93
2023/08/30 03:59:12;;;;;;;5.45;4.78;;;;;;;;;;6212641;23;20072;-93
2023/08/30 04:01:38;;;;;;;7.07;5.03;;;;;;;;;;6213381;23;20148;-92
2023/08/30 04:04:04;;;;;;;7.15;5.32;;;;;;;;;;6212367;23;20016;-93
2023/08/30 04:06:30;;;;;;;6.88;4.88;;;;;;;;;;6187785;23;20047;-92
2023/08/30 04:08:57;;;;;;;6.75;5.10;;;;;;;;;;6211865;23;20016;-92
2023/08/30 04:11:23;;;;;;;7.20;5.50;;;;;;;;;;6213013;23;20097;-93
2023/08/30 04:13:49;;;;;;;7.35;5.35;;;;;;;;;;6187133;23;20051;-92
2023/08/30 04:16:15;;;;;;;6.13;4.43;;;;;;;;;;6213480;23;20060;-93
2023/08/30 04:18:41;;;;;;;6.13;4.70;;;;;;;;;;6212986;23;20020;-93
2023/08/30 04:21:08;;;;;;;7.50;4.80;;;;;;;;;;6187255;23;20008;-94
2023/08/30 04:23:34;;;;;;;7.43;4.63;;;;;;;;;;6211931;23;20347;-93
2023/08/30 04:26:00;;;;;;;7.45;5.43;;;;;;;;;;6212428;23;20446;-92
2023/08/30 04:28:29;;;;;;;7.78;5.35;;;;;;;;;;6213262;23;20027;-93
2023/08/30 04:30:55;;;;;;;7.70;5.57;;;;;;;;;;6187412;23;20433;-93
2023/08/30 04:33:22;;;;;;;6.38;4.78;;;;;;;;;;6186494;23;20021;-93
2023/08/30 04:35:51;;;;;;;5.53;4.78;;;;;;;;;;6212611;23;20023;-92
2023/08/30 04:38:17;;;;;;;7.38;4.90;;;;;;;;;;6211928;23;20012;-92
2023/08/30 04:40:43;;;;;;;7.05;4.65;;;;;;;;;;6213611;23;20047;-92
2023/08/30 04:43:10;;;;;;;7.20;5.30;;;;;;;;;;6187717;23;20012;-92
2023/08/30 04:45:36;;;;;;;6.50;4.45;;;;;;;;;;6214587;23;20016;-92
2023/08/30 04:48:02;;;;;;;7.05;4.93;;;;;;;;;;6214724;23;20016;-93
2023/08/30 04:50:28;;;;;;;7.22;5.53;;;;;;;;;;6188718;23;20023;-92
2023/08/30 04:52:54;;;;;;;7.22;5.13;;;;;;;;;;6215660;23;20012;-92
2023/08/30 04:55:20;;;;;;;7.45;5.65;;;;;;;;;;6197126;23;20016;-92
2023/08/30 04:57:47;;;;;;;7.75;5.25;;;;;;;;;;6201437;23;20012;-93
2023/08/30 05:00:13;;;;;;;6.88;4.78;;;;;;;;;;6225443;23;20030;-92
2023/08/30 05:02:40;;;;;;;7.07;4.97;;;;;;;;;;6242546;23;20008;-93
2023/08/30 05:05:07;;;;;;;7.88;4.72;;;;;;;;;;6243612;23;20043;-93
2023/08/30 05:07:33;;;;;;;6.43;4.97;;;;;;;;;;6216420;23;20020;-92
2023/08/30 05:09:59;;;;;;;6.40;5.13;;;;;;;;;;6217057;23;20016;-93
2023/08/30 05:12:25;;;;;;;6.82;5.03;;;;;;;;;;6216450;23;20019;-92
2023/08/30 05:14:51;;;;;;;7.53;5.25;;;;;;;;;;6244398;23;20008;-92
2023/08/30 05:17:17;;;;;;;8.82;4.57;;;;;;;;;;6219939;23;20035;-93
2023/08/30 05:19:43;;;;;;;7.70;5.05;;;;;;;;;;6246730;23;20096;-92
2023/08/30 05:22:09;;;;;;;7.25;4.97;;;;;;;;;;6242829;23;20016;-94
2023/08/30 05:24:35;;;;;;;6.25;4.57;;;;;;;;;;6196156;23;20012;-85
2023/08/30 05:27:02;;;;;;;7.88;5.20;;;;;;;;;;6213508;23;20095;-84
2023/08/30 05:29:28;;;;;;;6.32;4.97;;;;;;;;;;6214328;23;20023;-93
2023/08/30 05:31:54;;;;;;;7.07;5.38;;;;;;;;;;6245351;23;20023;-91
2023/08/30 05:34:20;;;;;;;7.88;4.75;;;;;;;;;;6243969;23;20038;-91
2023/08/30 05:36:47;;;;;;;7.88;5.22;;;;;;;;;;6244785;23;20016;-91
2023/08/30 05:39:13;;;;;;;7.13;5.22;;;;;;;;;;6217106;23;20023;-93
2023/08/30 05:41:39;;;;;;;8.23;4.47;;;;;;;;;;6192171;23;20018;-90
2023/08/30 05:44:05;;;;;;;8.68;4.80;;;;;;;;;;6218365;23;20012;-91
2023/08/30 05:46:31;;;;;;;7.57;4.65;;;;;;;;;;6218912;23;20091;-91
2023/08/30 05:48:57;;;;;;;6.68;4.55;;;;;;;;;;6220226;23;20012;-93
2023/08/30 05:51:24;;;;;;;6.50;4.95;;;;;;;;;;6219574;23;20027;-94
2023/08/30 05:53:50;;;;;;;7.95;5.03;;;;;;;;;;6196778;23;20016;-90
2023/08/30 05:56:17;;;;;;;7.25;4.78;;;;;;;;;;6245851;23;20016;-94
2023/08/30 05:58:43;;;;;;;6.57;5.10;;;;;;;;;;6220091;23;20020;-93
2023/08/30 06:01:09;;;;;;;6.88;4.30;;;;;;;;;;6194106;23;20016;-89
2023/08/30 06:03:35;;;;;;;6.90;5.20;;;;;;;;;;6245862;23;20020;-94
2023/08/30 06:06:01;;;;;;;6.78;4.75;;;;;;;;;;6217261;23;20016;-91
2023/08/30 06:08:27;;;;;;;7.72;4.70;;;;;;;;;;6218513;23;20046;-94
2023/08/30 06:10:53;;;;;;;7.70;5.10;;;;;;;;;;6198002;23;20027;-91
2023/08/30 06:13:19;;;;;;;9.07;5.68;;;;;;;;;;6245873;23;20378;-91
2023/08/30 06:15:45;;;;;;;7.50;4.18;;;;;;;;;;6219365;23;20381;-92
2023/08/30 06:18:11;;;;;;;7.20;4.65;;;;;;;;;;6218110;23;20012;-92
2023/08/30 06:20:41;;;;;;;7.72;5.18;;;;;;;;;;6193139;23;20012;-92
2023/08/30 06:23:07;;;;;;;7.95;4.78;;;;;;;;;;6217151;23;20016;-92
2023/08/30 06:25:33;;;;;;;7.38;5.05;;;;;;;;;;6219356;23;20019;-94
2023/08/30 06:28:01;;;;;;;7.10;5.00;;;;;;;;;;6223544;23;20075;-94
2023/08/30 06:30:29;;;;;;;8.63;5.30;;;;;;;;;;6201520;23;20016;-94
2023/08/30 06:32:55;;;;;;;7.93;4.95;;;;;;;;;;6209219;23;20016;-95
2023/08/30 06:35:21;;;;;;;7.85;5.10;;;;;;;;;;6223212;23;20012;-91
2023/08/30 06:37:47;;;;;;;7.50;4.68;;;;;;;;;;6220130;23;20008;-93
2023/08/30 06:40:13;;;;;;;8.07;4.60;;;;;;;;;;6193650;23;20095;-92
2023/08/30 06:42:39;;;;;;;7.85;5.00;;;;;;;;;;6220258;23;20027;-90
2023/08/30 06:45:06;;;;;;;8.57;4.70;;;;;;;;;;6192959;23;20048;-92
2023/08/30 06:47:32;;;;;;;8.48;5.13;;;;;;;;;;6217939;23;20019;-91
2023/08/30 06:49:58;;;;;;;7.53;5.00;;;;;;;;;;6192219;23;20054;-93
2023/08/30 06:52:25;;;;;;;7.80;5.85;;;;;;;;;;6217701;23;20016;-93
2023/08/30 06:54:51;;;;;;;7.80;5.13;;;;;;;;;;6217267;23;20016;-92
2023/08/30 06:57:17;;;;;;;8.68;5.45;;;;;;;;;;6191370;23;20008;-87
2023/08/30 06:59:43;;;;;;;6.60;4.82;;;;;;;;;;6216335;23;20016;-87
2023/08/30 07:02:09;;;;;;;9.63;4.50;;;;;;;;;;6214347;23;20792;-87
2023/08/30 07:04:35;;;;;;;8.77;5.45;;;;;;;;;;6241623;23;20012;-87
2023/08/30 07:07:01;;;;;;;8.85;5.15;;;;;;;;;;6242051;23;20087;-86
2023/08/30 07:09:31;;;;;;;10.65;5.65;;;;;;;;;;6215375;23;20012;-89
2023/08/30 07:11:57;;;;;;;8.48;5.35;;;;;;;;;;6214468;23;20020;-86
2023/08/30 07:14:24;;;;;;;7.80;5.45;;;;;;;;;;6242039;23;20020;-84
2023/08/30 07:16:50;;;;;;;9.50;6.43;;;;;;;;;;6241898;23;20023;-83
2023/08/30 07:19:16;;;;;;;7.50;5.10;;;;;;;;;;6213850;23;20024;-82
2023/08/30 07:21:43;;;;;;;7.45;5.00;;;;;;;;;;6242028;23;20016;-86
2023/08/30 07:24:09;;;;;;;8.55;5.55;;;;;;;;;;6213232;23;20019;-86
2023/08/30 07:26:36;;;;;;;6.65;4.18;;;;;;;;;;6243492;23;20012;-93
2023/08/30 07:29:04;;;;;;;8.65;4.82;;;;;;;;;;6216717;23;20012;-87
2023/08/30 07:31:30;;;;;;;9.38;5.45;;;;;;;;;;6214016;23;20282;-87
2023/08/30 07:33:58;;;;;;;8.77;5.72;;;;;;;;;;6190462;23;20020;-83
2023/08/30 07:36:24;;;;;;;8.48;5.78;;;;;;;;;;6215788;23;20024;-89
2023/08/30 07:38:50;;;;;;;10.18;5.68;;;;;;;;;;6239501;23;20023;-85
2023/08/30 07:41:16;;;;;;;8.25;5.45;;;;;;;;;;6241627;23;20015;-86
2023/08/30 07:43:42;;;;;;;9.63;5.55;;;;;;;;;;6214739;23;20419;-86
2023/08/30 07:46:08;;;;;;;10.00;6.20;;;;;;;;;;6241338;23;20008;-85
2023/08/30 07:48:34;;;;;;;10.52;5.85;;;;;;;;;;6215489;23;20016;-85
2023/08/30 07:51:00;;;;;;;7.80;5.35;;;;;;;;;;6215187;23;20046;-85
2023/08/30 07:53:26;;;;;;;11.02;5.93;;;;;;;;;;6214685;23;20369;-85
2023/08/30 07:55:52;;;;;;;10.90;5.75;;;;;;;;;;6240405;23;20012;-84
2023/08/30 07:58:18;;;;;;;9.15;5.90;;;;;;;;;;6212451;23;20099;-85
2023/08/30 08:00:44;;;;;;;11.70;7.10;;;;;;;;;;6239420;23;20434;-85
2023/08/30 08:03:10;;;;;;;10.82;7.00;;;;;;;;;;6240024;23;20008;-86
2023/08/30 08:05:37;;;;;;;9.00;6.38;;;;;;;;;;6215707;23;20019;-85
2023/08/30 08:08:03;;;;;;;8.73;5.70;;;;;;;;;;6241018;23;20119;-85
2023/08/30 08:10:33;;;;;;;8.43;5.82;;;;;;;;;;6241134;23;20074;-85
2023/08/30 08:12:59;;;;;;;9.30;6.25;;;;;;;;;;6214702;23;20008;-85
2023/08/30 08:15:25;;;;;;;13.88;6.70;;;;;;;;;;6213991;23;20019;-86
2023/08/30 08:17:51;;;;;;;9.75;6.22;;;;;;;;;;6241932;23;20014;-85
2023/08/30 08:20:17;;;;;;;9.98;6.13;;;;;;;;;;6214063;23;20016;-86
2023/08/30 08:22:44;;;;;;;9.93;6.60;;;;;;;;;;6213869;23;20046;-85
2023/08/30 08:25:10;;;;;;;10.20;6.20;;;;;;;;;;6244433;23;20016;-84
2023/08/30 08:27:37;;;;;;;11.35;6.55;;;;;;;;;;6190136;23;20020;-85
2023/08/30 08:30:04;;;;;;;9.98;5.60;;;;;;;;;;6213611;23;20081;-87
2023/08/30 08:32:33;;;;;;;9.98;5.82;;;;;;;;;;6216046;23;20012;-86
2023/08/30 08:34:59;;;;;;;9.50;5.80;;;;;;;;;;6215414;23;20095;-85
2023/08/30 08:37:27;;;;;;;9.30;5.55;;;;;;;;;;6214261;23;20011;-86
2023/08/30 08:39:53;;;;;;;9.32;5.22;;;;;;;;;;6188495;23;20028;-84
2023/08/30 08:42:19;;;;;;;9.60;5.40;;;;;;;;;;6241508;23;20107;-85
2023/08/30 08:44:52;;;;;;;8.45;4.95;;;;;;;;;;6214445;23;20016;-86
2023/08/30 08:47:20;;;;;;;9.35;6.25;;;;;;;;;;6241638;23;20047;-85
2023/08/30 08:49:46;;;;;;;8.40;5.60;;;;;;;;;;6242254;23;20012;-91
2023/08/30 08:52:13;;;;;;;8.57;6.15;;;;;;;;;;6190175;23;20012;-86
2023/08/30 08:54:40;;;;;;;9.07;5.47;;;;;;;;;;6239627;23;20026;-87
2023/08/30 08:57:09;;;;;;;10.10;5.68;;;;;;;;;;6213219;23;20507;-87
2023/08/30 08:59:36;;;;;;;8.77;5.70;;;;;;;;;;6215140;23;20384;-86
2023/08/30 09:02:02;;;;;;;7.75;4.88;;;;;;;;;;6214765;23;20315;-84
2023/08/30 09:04:32;;;;;;;8.75;5.47;;;;;;;;;;6213885;23;20023;-89
2023/08/30 09:07:02;;;;;;;8.25;5.32;;;;;;;;;;6242484;23;20165;-88
2023/08/30 09:09:28;;;;;;;9.18;5.50;;;;;;;;;;6215592;23;20016;-87
2023/08/30 09:11:54;;;;;;;8.98;5.38;;;;;;;;;;6242731;23;20334;-87
2023/08/30 09:14:20;;;;;;;8.65;5.53;;;;;;;;;;6214931;23;20445;-88
2023/08/30 09:16:56;;;;;;;8.48;5.07;;;;;;;;;;6215417;23;20016;-87
2023/08/30 09:19:22;;;;;;;7.63;5.53;;;;;;;;;;6242058;23;20016;-88
2023/08/30 09:21:52;;;;;;;8.32;5.70;;;;;;;;;;6192520;23;20012;-88
2023/08/30 09:24:19;;;;;;;8.93;5.50;;;;;;;;;;6219805;23;20019;-92
2023/08/30 09:26:49;;;;;;;9.32;6.13;;;;;;;;;;6195861;23;20307;-92
2023/08/30 09:29:16;;;;;;;8.90;4.88;;;;;;;;;;6220641;23;20059;-92
2023/08/30 09:31:42;;;;;;;8.60;5.40;;;;;;;;;;6248175;23;20016;-92
2023/08/30 09:34:10;;;;;;;7.85;5.25;;;;;;;;;;6218830;23;20517;-91
2023/08/30 09:36:40;;;;;;;6.82;4.60;;;;;;;;;;6222229;23;20023;-91
2023/08/30 09:39:09;;;;;;;8.18;5.07;;;;;;;;;;6198379;23;20016;-87
2023/08/30 09:41:35;;;;;;;5.90;4.18;;;;;;;;;;6225146;23;20022;-90
2023/08/30 09:44:07;;;;;;;7.28;5.18;;;;;;;;;;6252840;23;20023;-92
2023/08/30 09:46:40;;;;;;;11.07;5.93;;;;;;;;;;6262441;23;20039;-91
2023/08/30 09:49:07;;;;;;;10.10;5.80;;;;;;;;;;6235411;23;20062;-89
2023/08/30 09:51:34;;;;;;;6.82;5.22;;;;;;;;;;6250883;23;20087;-89
2023/08/30 09:54:02;;;;;;;7.88;5.03;;;;;;;;;;6211771;23;20051;-85
2023/08/30 09:56:28;;;;;;;7.22;4.82;;;;;;;;;;6212460;23;20457;-87
2023/08/30 09:58:55;;;;;;;8.23;5.50;;;;;;;;;;6212247;23;20067;-86
2023/08/30 10:01:21;;;;;;;11.48;5.32;;;;;;;;;;6213231;23;20450;-86
2023/08/30 10:03:47;;;;;;;6.53;4.55;;;;;;;;;;6209727;23;20066;-86
2023/08/30 10:06:15;;;;;;;8.18;5.20;;;;;;;;;;6209059;23;20027;-87
2023/08/30 10:08:41;;;;;;;7.30;5.03;;;;;;;;;;6209576;23;20449;-86
2023/08/30 10:11:08;;;;;;;6.20;4.57;;;;;;;;;;6211304;23;20098;-86
2023/08/30 10:13:36;;;;;;;10.02;4.93;;;;;;;;;;6213103;23;20013;-86
2023/08/30 10:16:05;;;;;;;9.48;5.40;;;;;;;;;;6210169;23;20012;-86
2023/08/30 10:18:34;;;;;;;7.93;4.95;;;;;;;;;;6212437;23;20130;-87
2023/08/30 10:21:02;;;;;;;7.18;4.68;;;;;;;;;;6209475;23;20051;-86
2023/08/30 10:23:28;;;;;;;7.28;5.03;;;;;;;;;;6212854;23;20055;-87
2023/08/30 10:25:55;;;;;;;6.45;4.30;;;;;;;;;;6213404;23;20087;-87
2023/08/30 10:28:22;;;;;;;7.65;5.10;;;;;;;;;;6212317;23;20027;-87
2023/08/30 10:30:48;;;;;;;8.35;5.18;;;;;;;;;;6214354;23;20346;-89
2023/08/30 10:33:16;;;;;;;7.10;4.70;;;;;;;;;;6208544;23;20020;-90
2023/08/30 10:35:52;;;;;;;8.35;5.55;;;;;;;;;;6208746;23;20159;-91
2023/08/30 10:38:28;;;;;;;8.98;6.00;;;;;;;;;;6212633;23;20023;-90
2023/08/30 10:40:54;;;;;;;6.97;3.97;;;;;;;;;;6211793;23;20399;-86
2023/08/30 10:43:30;;;;;;;5.13;4.05;;;;;;;;;;6185180;23;20024;-87
2023/08/30 10:46:12;;;;;;;4.78;3.22;;;;;;;;;;6209708;23;20013;-86
2023/08/30 10:48:38;;;;;;;6.68;3.50;;;;;;;;;;6213350;23;20012;-87
2023/08/30 10:51:05;;;;;;;6.28;3.97;;;;;;;;;;6209811;23;20394;-87
2023/08/30 10:53:31;;;;;;;6.00;3.83;;;;;;;;;;6185597;23;20059;-85
2023/08/30 10:56:04;;;;;;;4.18;3.30;;;;;;;;;;6211439;23;20023;-86
2023/08/30 10:58:39;;;;;;;5.60;3.60;;;;;;;;;;6211301;23;20102;-89
2023/08/30 11:01:07;;;;;;;4.60;3.08;;;;;;;;;;6210476;23;20453;-88
2023/08/30 11:03:33;;;;;;;4.25;3.22;;;;;;;;;;6211878;23;20063;-86
2023/08/30 11:06:01;;;;;;;6.22;3.45;;;;;;;;;;6209004;23;20013;-88
2023/08/30 11:08:28;;;;;;;4.47;3.30;;;;;;;;;;6209004;23;20016;-88
2023/08/30 11:11:21;;;;;;;4.75;3.30;;;;;;;;;;6209826;23;20016;-85
2023/08/30 11:13:47;;;;;;;4.85;3.28;;;;;;;;;;6210488;23;20028;-85
2023/08/30 11:16:13;;;;;;;4.85;3.40;;;;;;;;;;6184608;23;20020;-85
2023/08/30 11:18:41;;;;;;;5.55;3.15;;;;;;;;;;6210877;23;20016;-86
2023/08/30 11:21:09;;;;;;;5.18;3.55;;;;;;;;;;6184234;23;20096;-85
2023/08/30 11:23:35;;;;;;;5.28;3.38;;;;;;;;;;6209753;23;20020;-84
2023/08/30 11:26:03;;;;;;;4.97;3.55;;;;;;;;;;6210975;23;20009;-85
2023/08/30 11:28:29;;;;;;;4.90;3.65;;;;;;;;;;6211625;23;20016;-84
2023/08/30 11:30:56;;;;;;;5.85;4.03;;;;;;;;;;6211486;23;20024;-85
2023/08/30 11:33:22;;;;;;;5.00;3.78;;;;;;;;;;6210087;23;20008;-85
2023/08/30 11:35:49;;;;;;;5.57;4.47;;;;;;;;;;6210564;23;20040;-85
2023/08/30 11:38:16;;;;;;;5.30;4.00;;;;;;;;;;6208641;23;20048;-86
2023/08/30 11:40:42;;;;;;;5.75;3.88;;;;;;;;;;6212029;23;20013;-86
2023/08/30 11:43:08;;;;;;;5.80;3.75;;;;;;;;;;6209786;23;20339;-86
2023/08/30 11:45:34;;;;;;;6.07;4.10;;;;;;;;;;6212041;23;20180;-86
2023/08/30 11:48:01;;;;;;;5.63;4.32;;;;;;;;;;6209856;23;20367;-86
2023/08/30 11:50:27;;;;;;;5.32;4.10;;;;;;;;;;6211267;23;20023;-86
2023/08/30 11:52:53;;;;;;;5.45;3.65;;;;;;;;;;6210004;23;20087;-86
2023/08/30 11:55:21;;;;;;;5.07;3.40;;;;;;;;;;6239893;23;20024;-85
2023/08/30 11:57:50;;;;;;;3.85;3.08;;;;;;;;;;6213942;23;20170;-84
2023/08/30 12:00:18;;;;;;;4.25;3.20;;;;;;;;;;6188120;23;20034;-86
2023/08/30 12:02:46;;;;;;;4.47;3.30;;;;;;;;;;6213003;23;20090;-86
2023/08/30 12:05:15;;;;;;;5.28;3.17;;;;;;;;;;6212493;23;20012;-88
2023/08/30 12:07:42;;;;;;;5.25;3.75;;;;;;;;;;6214604;23;20012;-86
2023/08/30 12:10:09;;;;;;;5.80;3.60;;;;;;;;;;6240049;23;20069;-86
2023/08/30 12:12:38;;;;;;;4.78;3.60;;;;;;;;;;6242350;23;20023;-83
2023/08/30 12:15:14;;;;;;;3.90;3.35;;;;;;;;;;6212959;23;20165;-86
2023/08/30 12:17:40;;;;;;;3.85;3.08;;;;;;;;;;6242416;23;20016;-86
2023/08/30 12:20:06;;;;;;;4.63;3.00;;;;;;;;;;6214719;23;20066;-87
2023/08/30 12:22:39;;;;;;;3.88;2.67;;;;;;;;;;6240217;23;20059;-86
2023/08/30 12:25:16;;;;;;;4.88;3.38;;;;;;;;;;6241120;23;20008;-87
2023/08/30 12:27:42;;;;;;;5.00;2.72;;;;;;;;;;6215281;23;20008;-87
2023/08/30 12:30:09;;;;;;;3.90;2.92;;;;;;;;;;6241256;23;20082;-88
2023/08/30 12:32:35;;;;;;;3.40;2.30;;;;;;;;;;6214786;23;20062;-87
2023/08/30 12:35:01;;;;;;;4.05;2.72;;;;;;;;;;6214099;23;20016;-87
2023/08/30 12:37:27;;;;;;;2.90;2.55;;;;;;;;;;6214428;23;20012;-86
2023/08/30 12:39:53;;;;;;;3.83;2.70;;;;;;;;;;6189837;23;20369;-87
2023/08/30 12:42:19;;;;;;;3.35;2.58;;;;;;;;;;6214836;23;20008;-87
2023/08/30 12:44:46;;;;;;;3.15;2.55;;;;;;;;;;6215175;23;20044;-86
2023/08/30 12:47:13;;;;;;;3.45;2.50;;;;;;;;;;6213724;23;20008;-86
2023/08/30 12:49:40;;;;;;;2.38;1.90;;;;;;;;;;6242246;23;20023;-87
2023/08/30 12:52:06;;;;;;;2.92;2.15;;;;;;;;;;6212923;23;20012;-87
2023/08/30 12:54:33;;;;;;;2.92;2.22;;;;;;;;;;6240937;23;20059;-87
2023/08/30 12:56:59;;;;;;;2.28;1.83;;;;;;;;;;6214281;23;20012;-87
2023/08/30 12:59:25;;;;;;;2.30;1.98;;;;;;;;;;6213821;23;20016;-86
2023/08/30 13:01:51;;;;;;;2.30;1.85;;;;;;;;;;6241929;23;20008;-89
2023/08/30 13:04:17;;;;;;;2.13;1.40;;;;;;;;;;6242224;23;20016;-88
2023/08/30 13:06:43;;;;;;;2.38;1.92;;;;;;;;;;6241950;23;20012;-89
2023/08/30 13:09:09;;;;;;;2.00;1.52;;;;;;;;;;6214436;23;20016;-87
2023/08/30 13:11:35;;;;;;;2.08;1.88;;;;;;;;;;6242742;23;20154;-87
2023/08/30 13:14:01;;;;;;;2.03;1.67;;;;;;;;;;6241500;23;20012;-87
2023/08/30 13:16:27;;;;;;;2.95;1.80;;;;;;;;;;6241524;23;20019;-88
2023/08/30 13:18:53;;;;;;;2.55;2.25;;;;;;;;;;6213734;23;20373;-87
2023/08/30 13:21:19;;;;;;;1.90;1.52;;;;;;;;;;6214458;23;20012;-82
2023/08/30 13:23:45;;;;;;;1.70;1.60;;;;;;;;;;6212299;23;20433;-82
2023/08/30 13:26:11;;;;;;;3.58;1.95;;;;;;;;;;6212782;23;20012;-82
2023/08/30 13:28:37;;;;;;;2.47;1.98;;;;;;;;;;6214534;23;20065;-82
2023/08/30 13:31:03;;;;;;;2.47;1.75;;;;;;;;;;6213572;23;20101;-83
2023/08/30 13:33:29;;;;;;;2.08;1.73;;;;;;;;;;6212771;23;20016;-83
2023/08/30 13:35:55;;;;;;;2.13;1.73;;;;;;;;;;6213916;23;20035;-82
2023/08/30 13:38:22;;;;;;;1.95;1.70;;;;;;;;;;6214009;23;20016;-83
2023/08/30 13:40:48;;;;;;;2.50;1.77;;;;;;;;;;6214384;23;20047;-84
2023/08/30 13:43:14;;;;;;;2.22;1.80;;;;;;;;;;6240343;23;20012;-81
2023/08/30 13:45:40;;;;;;;2.30;1.80;;;;;;;;;;6213462;23;20043;-84
2023/08/30 13:48:07;;;;;;;3.15;2.17;;;;;;;;;;6211995;23;20023;-84
2023/08/30 13:50:33;;;;;;;2.15;1.90;;;;;;;;;;6240986;23;20016;-84
2023/08/30 13:52:59;;;;;;;2.70;2.05;;;;;;;;;;6213102;23;20463;-83
2023/08/30 13:55:25;;;;;;;2.42;2.03;;;;;;;;;;6212549;23;20051;-88
2023/08/30 13:57:51;;;;;;;2.65;2.45;;;;;;;;;;6212759;23;20012;-88
2023/08/30 14:00:17;;;;;;;2.92;2.22;;;;;;;;;;6213733;23;20409;-86
2023/08/30 14:02:43;;;;;;;3.00;2.45;;;;;;;;;;6213225;23;20023;-82
2023/08/30 14:05:09;;;;;;;3.22;2.85;;;;;;;;;;6213255;23;20027;-85
2023/08/30 14:07:35;;;;;;;2.58;2.25;;;;;;;;;;6242356;23;20014;-90
2023/08/30 14:10:01;;;;;;;2.78;2.42;;;;;;;;;;6194049;23;20445;-94
2023/08/30 14:12:27;;;;;;;2.42;2.10;;;;;;;;;;6231029;23;20090;-90
2023/08/30 14:14:54;;;;;;;3.13;2.00;;;;;;;;;;6227724;23;20012;-94
2023/08/30 14:17:20;;;;;;;2.70;1.80;;;;;;;;;;6225199;23;20016;-96
2023/08/30 14:19:46;;;;;;;2.10;1.35;;;;;;;;;;6203360;23;20020;-95
2023/08/30 14:22:12;;;;;;;1.38;1.27;;;;;;;;;;6228305;23;20039;-94
2023/08/30 14:24:38;;;;;;;1.70;1.33;;;;;;;;;;6196806;23;20015;-91
2023/08/30 14:27:04;;;;;;;1.92;1.73;;;;;;;;;;6197085;23;20115;-93
2023/08/30 14:29:30;;;;;;;1.38;1.27;;;;;;;;;;6223245;23;20064;-87
2023/08/30 14:31:56;;;;;;;1.73;1.40;;;;;;;;;;6226705;23;20019;-91
2023/08/30 14:34:22;;;;;;;1.33;1.15;;;;;;;;;;6223451;23;20054;-89
2023/08/30 14:36:48;;;;;;;1.45;1.30;;;;;;;;;;6193505;23;20016;-86
2023/08/30 14:39:15;;;;;;;1.20;1.08;;;;;;;;;;6214353;23;20020;-86
2023/08/30 14:41:41;;;;;;;1.42;1.30;;;;;;;;;;6241856;23;20087;-86